sensor_id;sensor_type;location;lat;lon;timestamp;P1;durP1;ratioP1;P2;durP2;ratioP2
30151;SDS011;16963;26.018;-80.216;2022-08-14T00:02:36;5.10;;;2.83;;
30151;SDS011;16963;26.018;-80.216;2022-08-14T00:07:37;2.13;;;1.10;;
30151;SDS011;16963;26.018;-80.216;2022-08-14T00:10:10;1.70;;;1.20;;
30151;SDS011;16963;26.018;-80.216;2022-08-14T00:13:03;4.10;;;1.20;;
30151;SDS011;16963;26.018;-80.216;2022-08-14T00:15:34;2.08;;;1.10;;
30151;SDS011;16963;26.018;-80.216;2022-08-14T00:18:21;1.73;;;0.77;;
30151;SDS011;16963;26.018;-80.216;2022-08-14T00:21:50;1.40;;;0.90;;
30151;SDS011;16963;26.018;-80.216;2022-08-14T00:24:20;1.98;;;1.00;;
30151;SDS011;16963;26.018;-80.216;2022-08-14T00:26:57;2.00;;;0.90;;
30151;SDS011;16963;26.018;-80.216;2022-08-14T00:29:30;3.35;;;0.90;;
30151;SDS011;16963;26.018;-80.216;2022-08-14T00:32:06;4.45;;;1.00;;
30151;SDS011;16963;26.018;-80.216;2022-08-14T00:34:57;3.60;;;1.10;;
30151;SDS011;16963;26.018;-80.216;2022-08-14T00:37:27;3.67;;;0.90;;
30151;SDS011;16963;26.018;-80.216;2022-08-14T00:42:33;2.90;;;1.10;;
30151;SDS011;16963;26.018;-80.216;2022-08-14T00:45:21;1.60;;;1.00;;
30151;SDS011;16963;26.018;-80.216;2022-08-14T00:47:50;1.75;;;0.90;;
30151;SDS011;16963;26.018;-80.216;2022-08-14T00:50:19;2.67;;;1.60;;
30151;SDS011;16963;26.018;-80.216;2022-08-14T00:52:49;2.38;;;1.50;;
30151;SDS011;16963;26.018;-80.216;2022-08-14T00:55:19;2.00;;;1.20;;
30151;SDS011;16963;26.018;-80.216;2022-08-14T00:57:50;1.13;;;0.90;;
30151;SDS011;16963;26.018;-80.216;2022-08-14T01:00:38;2.50;;;1.52;;
30151;SDS011;16963;26.018;-80.216;2022-08-14T01:03:21;2.00;;;0.95;;
30151;SDS011;16963;26.018;-80.216;2022-08-14T01:08:22;2.53;;;1.20;;
30151;SDS011;16963;26.018;-80.216;2022-08-14T01:11:12;2.10;;;1.00;;
30151;SDS011;16963;26.018;-80.216;2022-08-14T01:13:46;1.10;;;0.93;;
30151;SDS011;16963;26.018;-80.216;2022-08-14T01:16:26;2.55;;;1.20;;
30151;SDS011;16963;26.018;-80.216;2022-08-14T01:18:57;1.13;;;0.98;;
30151;SDS011;16963;26.018;-80.216;2022-08-14T01:21:46;3.25;;;1.33;;
30151;SDS011;16963;26.018;-80.216;2022-08-14T01:24:20;3.33;;;1.63;;
30151;SDS011;16963;26.018;-80.216;2022-08-14T01:29:20;3.13;;;1.60;;
30151;SDS011;16963;26.018;-80.216;2022-08-14T01:32:10;2.08;;;1.20;;
30151;SDS011;16963;26.018;-80.216;2022-08-14T01:34:41;2.05;;;1.40;;
30151;SDS011;16963;26.018;-80.216;2022-08-14T01:37:30;2.05;;;1.30;;
30151;SDS011;16963;26.018;-80.216;2022-08-14T01:40:01;3.78;;;1.38;;
30151;SDS011;16963;26.018;-80.216;2022-08-14T01:42:36;2.33;;;1.23;;
30151;SDS011;16963;26.018;-80.216;2022-08-14T01:45:06;2.38;;;1.60;;
30151;SDS011;16963;26.018;-80.216;2022-08-14T01:50:09;4.18;;;1.90;;
30151;SDS011;16963;26.018;-80.216;2022-08-14T01:52:40;3.38;;;1.70;;
30151;SDS011;16963;26.018;-80.216;2022-08-14T01:55:26;2.65;;;1.80;;
30151;SDS011;16963;26.018;-80.216;2022-08-14T01:57:59;3.40;;;1.40;;
30151;SDS011;16963;26.018;-80.216;2022-08-14T02:00:47;2.85;;;1.70;;
30151;SDS011;16963;26.018;-80.216;2022-08-14T02:03:28;2.60;;;1.50;;
30151;SDS011;16963;26.018;-80.216;2022-08-14T02:06:06;2.58;;;1.60;;
30151;SDS011;16963;26.018;-80.216;2022-08-14T02:08:56;4.07;;;1.60;;
30151;SDS011;16963;26.018;-80.216;2022-08-14T02:11:38;3.20;;;1.73;;
30151;SDS011;16963;26.018;-80.216;2022-08-14T02:16:45;4.20;;;1.42;;
30151;SDS011;16963;26.018;-80.216;2022-08-14T02:19:21;2.30;;;1.50;;
30151;SDS011;16963;26.018;-80.216;2022-08-14T02:21:54;6.50;;;1.95;;
30151;SDS011;16963;26.018;-80.216;2022-08-14T02:24:29;5.15;;;1.80;;
30151;SDS011;16963;26.018;-80.216;2022-08-14T02:27:06;3.72;;;1.70;;
30151;SDS011;16963;26.018;-80.216;2022-08-14T02:32:31;2.75;;;1.40;;
30151;SDS011;16963;26.018;-80.216;2022-08-14T02:35:04;3.17;;;1.50;;
30151;SDS011;16963;26.018;-80.216;2022-08-14T02:37:56;3.35;;;1.55;;
30151;SDS011;16963;26.018;-80.216;2022-08-14T02:42:36;5.30;;;1.88;;
30151;SDS011;16963;26.018;-80.216;2022-08-14T02:45:21;3.67;;;1.40;;
30151;SDS011;16963;26.018;-80.216;2022-08-14T02:47:50;4.15;;;1.65;;
30151;SDS011;16963;26.018;-80.216;2022-08-14T02:50:23;4.03;;;1.70;;
30151;SDS011;16963;26.018;-80.216;2022-08-14T02:52:53;5.90;;;1.60;;
30151;SDS011;16963;26.018;-80.216;2022-08-14T02:55:42;2.88;;;1.70;;
30151;SDS011;16963;26.018;-80.216;2022-08-14T02:58:10;3.85;;;1.65;;
30151;SDS011;16963;26.018;-80.216;2022-08-14T03:01:50;4.55;;;1.80;;
30151;SDS011;16963;26.018;-80.216;2022-08-14T03:04:20;3.55;;;1.50;;
30151;SDS011;16963;26.018;-80.216;2022-08-14T03:06:51;5.82;;;1.75;;
30151;SDS011;16963;26.018;-80.216;2022-08-14T03:09:35;3.83;;;1.65;;
30151;SDS011;16963;26.018;-80.216;2022-08-14T03:12:27;2.40;;;1.40;;
30151;SDS011;16963;26.018;-80.216;2022-08-14T03:15:01;3.45;;;1.63;;
30151;SDS011;16963;26.018;-80.216;2022-08-14T03:17:42;3.35;;;1.38;;
30151;SDS011;16963;26.018;-80.216;2022-08-14T03:20:24;5.13;;;1.73;;
30151;SDS011;16963;26.018;-80.216;2022-08-14T03:22:53;5.10;;;1.90;;
30151;SDS011;16963;26.018;-80.216;2022-08-14T03:25:34;4.38;;;1.98;;
30151;SDS011;16963;26.018;-80.216;2022-08-14T03:28:06;4.13;;;1.92;;
30151;SDS011;16963;26.018;-80.216;2022-08-14T03:30:57;2.70;;;1.60;;
30151;SDS011;16963;26.018;-80.216;2022-08-14T03:33:26;2.42;;;1.58;;
30151;SDS011;16963;26.018;-80.216;2022-08-14T03:36:06;2.67;;;1.90;;
30151;SDS011;16963;26.018;-80.216;2022-08-14T03:39:01;2.95;;;1.70;;
30151;SDS011;16963;26.018;-80.216;2022-08-14T03:41:49;3.67;;;2.00;;
30151;SDS011;16963;26.018;-80.216;2022-08-14T03:44:21;3.40;;;1.85;;
30151;SDS011;16963;26.018;-80.216;2022-08-14T03:47:14;4.23;;;2.30;;
30151;SDS011;16963;26.018;-80.216;2022-08-14T03:49:43;3.95;;;2.20;;
30151;SDS011;16963;26.018;-80.216;2022-08-14T03:52:16;5.47;;;2.42;;
30151;SDS011;16963;26.018;-80.216;2022-08-14T03:55:06;5.53;;;2.10;;
30151;SDS011;16963;26.018;-80.216;2022-08-14T03:57:38;4.22;;;1.95;;
30151;SDS011;16963;26.018;-80.216;2022-08-14T04:00:10;5.57;;;2.15;;
30151;SDS011;16963;26.018;-80.216;2022-08-14T04:03:01;8.52;;;2.47;;
30151;SDS011;16963;26.018;-80.216;2022-08-14T04:05:32;5.10;;;2.08;;
30151;SDS011;16963;26.018;-80.216;2022-08-14T04:08:00;4.50;;;1.73;;
30151;SDS011;16963;26.018;-80.216;2022-08-14T04:12:40;4.93;;;2.30;;
30151;SDS011;16963;26.018;-80.216;2022-08-14T04:15:17;2.65;;;1.92;;
30151;SDS011;16963;26.018;-80.216;2022-08-14T04:17:50;3.00;;;1.50;;
30151;SDS011;16963;26.018;-80.216;2022-08-14T04:20:21;5.00;;;2.28;;
30151;SDS011;16963;26.018;-80.216;2022-08-14T04:22:51;3.42;;;2.10;;
30151;SDS011;16963;26.018;-80.216;2022-08-14T04:25:21;5.10;;;1.70;;
30151;SDS011;16963;26.018;-80.216;2022-08-14T04:27:52;5.93;;;2.10;;
30151;SDS011;16963;26.018;-80.216;2022-08-14T04:33:11;5.10;;;1.92;;
30151;SDS011;16963;26.018;-80.216;2022-08-14T04:35:46;3.60;;;1.90;;
30151;SDS011;16963;26.018;-80.216;2022-08-14T04:38:22;5.05;;;2.20;;
30151;SDS011;16963;26.018;-80.216;2022-08-14T04:41:12;3.15;;;2.00;;
30151;SDS011;16963;26.018;-80.216;2022-08-14T04:44:00;4.38;;;2.03;;
30151;SDS011;16963;26.018;-80.216;2022-08-14T04:46:30;3.78;;;2.63;;
30151;SDS011;16963;26.018;-80.216;2022-08-14T04:49:20;3.08;;;1.95;;
30151;SDS011;16963;26.018;-80.216;2022-08-14T04:52:11;3.05;;;2.13;;
30151;SDS011;16963;26.018;-80.216;2022-08-14T04:54:49;5.75;;;2.20;;
30151;SDS011;16963;26.018;-80.216;2022-08-14T04:57:17;5.30;;;2.20;;
30151;SDS011;16963;26.018;-80.216;2022-08-14T04:59:48;5.78;;;2.00;;
30151;SDS011;16963;26.018;-80.216;2022-08-14T05:02:20;4.55;;;1.90;;
30151;SDS011;16963;26.018;-80.216;2022-08-14T05:04:51;5.40;;;2.42;;
30151;SDS011;16963;26.018;-80.216;2022-08-14T05:07:23;4.88;;;2.00;;
30151;SDS011;16963;26.018;-80.216;2022-08-14T05:10:10;5.05;;;2.30;;
30151;SDS011;16963;26.018;-80.216;2022-08-14T05:14:22;3.88;;;1.92;;
30151;SDS011;16963;26.018;-80.216;2022-08-14T05:17:11;4.97;;;2.20;;
30151;SDS011;16963;26.018;-80.216;2022-08-14T05:19:40;7.40;;;2.33;;
30151;SDS011;16963;26.018;-80.216;2022-08-14T05:22:28;3.42;;;2.30;;
30151;SDS011;16963;26.018;-80.216;2022-08-14T05:25:01;4.35;;;2.13;;
30151;SDS011;16963;26.018;-80.216;2022-08-14T05:27:30;3.97;;;2.38;;
30151;SDS011;16963;26.018;-80.216;2022-08-14T05:29:58;3.70;;;2.28;;
30151;SDS011;16963;26.018;-80.216;2022-08-14T05:32:36;5.57;;;2.38;;
30151;SDS011;16963;26.018;-80.216;2022-08-14T05:37:40;4.15;;;2.42;;
30151;SDS011;16963;26.018;-80.216;2022-08-14T05:40:12;4.35;;;2.05;;
30151;SDS011;16963;26.018;-80.216;2022-08-14T05:42:41;2.90;;;1.95;;
30151;SDS011;16963;26.018;-80.216;2022-08-14T05:45:12;4.22;;;1.95;;
30151;SDS011;16963;26.018;-80.216;2022-08-14T05:47:42;8.00;;;2.78;;
30151;SDS011;16963;26.018;-80.216;2022-08-14T05:50:16;4.07;;;1.98;;
30151;SDS011;16963;26.018;-80.216;2022-08-14T05:52:46;6.63;;;2.38;;
30151;SDS011;16963;26.018;-80.216;2022-08-14T05:55:18;6.30;;;2.38;;
30151;SDS011;16963;26.018;-80.216;2022-08-14T06:00:11;4.55;;;2.13;;
30151;SDS011;16963;26.018;-80.216;2022-08-14T06:02:59;5.85;;;2.60;;
30151;SDS011;16963;26.018;-80.216;2022-08-14T06:05:33;6.07;;;2.20;;
30151;SDS011;16963;26.018;-80.216;2022-08-14T06:08:40;4.18;;;2.35;;
30151;SDS011;16963;26.018;-80.216;2022-08-14T06:11:07;4.60;;;2.30;;
30151;SDS011;16963;26.018;-80.216;2022-08-14T06:13:51;3.85;;;2.60;;
30151;SDS011;16963;26.018;-80.216;2022-08-14T06:16:22;6.15;;;2.75;;
30151;SDS011;16963;26.018;-80.216;2022-08-14T06:18:50;4.15;;;2.67;;
30151;SDS011;16963;26.018;-80.216;2022-08-14T06:22:33;4.75;;;2.30;;
30151;SDS011;16963;26.018;-80.216;2022-08-14T06:25:13;3.65;;;1.92;;
30151;SDS011;16963;26.018;-80.216;2022-08-14T06:27:47;3.92;;;2.25;;
30151;SDS011;16963;26.018;-80.216;2022-08-14T06:30:22;6.95;;;2.63;;
30151;SDS011;16963;26.018;-80.216;2022-08-14T06:33:08;5.82;;;2.53;;
30151;SDS011;16963;26.018;-80.216;2022-08-14T06:35:37;5.15;;;2.50;;
30151;SDS011;16963;26.018;-80.216;2022-08-14T06:38:07;4.10;;;2.25;;
30151;SDS011;16963;26.018;-80.216;2022-08-14T06:40:42;3.95;;;2.40;;
30151;SDS011;16963;26.018;-80.216;2022-08-14T06:43:22;7.43;;;2.50;;
30151;SDS011;16963;26.018;-80.216;2022-08-14T06:45:58;4.03;;;2.17;;
30151;SDS011;16963;26.018;-80.216;2022-08-14T06:48:28;3.83;;;2.00;;
30151;SDS011;16963;26.018;-80.216;2022-08-14T06:51:01;5.28;;;2.20;;
30151;SDS011;16963;26.018;-80.216;2022-08-14T06:53:32;3.33;;;2.05;;
30151;SDS011;16963;26.018;-80.216;2022-08-14T06:56:01;3.95;;;2.20;;
30151;SDS011;16963;26.018;-80.216;2022-08-14T06:58:33;4.65;;;2.20;;
30151;SDS011;16963;26.018;-80.216;2022-08-14T07:01:02;6.13;;;2.10;;
30151;SDS011;16963;26.018;-80.216;2022-08-14T07:06:21;4.82;;;2.25;;
30151;SDS011;16963;26.018;-80.216;2022-08-14T07:09:10;4.07;;;2.00;;
30151;SDS011;16963;26.018;-80.216;2022-08-14T07:11:43;3.33;;;2.50;;
30151;SDS011;16963;26.018;-80.216;2022-08-14T07:14:13;4.65;;;2.35;;
30151;SDS011;16963;26.018;-80.216;2022-08-14T07:16:41;5.15;;;2.20;;
30151;SDS011;16963;26.018;-80.216;2022-08-14T07:19:10;5.32;;;2.55;;
30151;SDS011;16963;26.018;-80.216;2022-08-14T07:24:22;3.53;;;2.58;;
30151;SDS011;16963;26.018;-80.216;2022-08-14T07:27:01;5.28;;;2.53;;
30151;SDS011;16963;26.018;-80.216;2022-08-14T07:29:29;4.43;;;2.58;;
30151;SDS011;16963;26.018;-80.216;2022-08-14T07:32:01;3.88;;;2.30;;
30151;SDS011;16963;26.018;-80.216;2022-08-14T07:34:30;5.80;;;2.25;;
30151;SDS011;16963;26.018;-80.216;2022-08-14T07:37:03;5.65;;;2.60;;
30151;SDS011;16963;26.018;-80.216;2022-08-14T07:39:31;4.63;;;2.50;;
30151;SDS011;16963;26.018;-80.216;2022-08-14T07:42:04;4.82;;;2.40;;
30151;SDS011;16963;26.018;-80.216;2022-08-14T07:44:32;6.53;;;2.67;;
30151;SDS011;16963;26.018;-80.216;2022-08-14T07:48:25;5.82;;;2.83;;
30151;SDS011;16963;26.018;-80.216;2022-08-14T07:50:52;5.13;;;2.50;;
30151;SDS011;16963;26.018;-80.216;2022-08-14T07:53:29;5.22;;;2.70;;
30151;SDS011;16963;26.018;-80.216;2022-08-14T07:56:07;4.75;;;2.30;;
30151;SDS011;16963;26.018;-80.216;2022-08-14T07:58:57;2.92;;;2.10;;
30151;SDS011;16963;26.018;-80.216;2022-08-14T08:01:26;4.85;;;2.40;;
30151;SDS011;16963;26.018;-80.216;2022-08-14T08:03:58;5.25;;;1.83;;
30151;SDS011;16963;26.018;-80.216;2022-08-14T08:06:42;4.35;;;2.10;;
30151;SDS011;16963;26.018;-80.216;2022-08-14T08:09:52;5.10;;;2.35;;
30151;SDS011;16963;26.018;-80.216;2022-08-14T08:12:24;5.28;;;2.08;;
30151;SDS011;16963;26.018;-80.216;2022-08-14T08:14:56;5.22;;;2.10;;
30151;SDS011;16963;26.018;-80.216;2022-08-14T08:17:35;6.03;;;2.38;;
30151;SDS011;16963;26.018;-80.216;2022-08-14T08:20:14;4.85;;;2.33;;
30151;SDS011;16963;26.018;-80.216;2022-08-14T08:22:47;5.32;;;1.92;;
30151;SDS011;16963;26.018;-80.216;2022-08-14T08:25:22;4.32;;;2.20;;
30151;SDS011;16963;26.018;-80.216;2022-08-14T08:27:54;4.35;;;2.17;;
30151;SDS011;16963;26.018;-80.216;2022-08-14T08:30:33;3.60;;;2.28;;
30151;SDS011;16963;26.018;-80.216;2022-08-14T08:33:16;3.75;;;2.63;;
30151;SDS011;16963;26.018;-80.216;2022-08-14T08:35:46;6.05;;;2.40;;
30151;SDS011;16963;26.018;-80.216;2022-08-14T08:38:19;4.60;;;2.25;;
30151;SDS011;16963;26.018;-80.216;2022-08-14T08:41:11;3.15;;;2.15;;
30151;SDS011;16963;26.018;-80.216;2022-08-14T08:43:39;6.25;;;2.10;;
30151;SDS011;16963;26.018;-80.216;2022-08-14T08:46:17;5.00;;;2.40;;
30151;SDS011;16963;26.018;-80.216;2022-08-14T08:48:52;2.83;;;2.17;;
30151;SDS011;16963;26.018;-80.216;2022-08-14T08:53:32;4.10;;;2.25;;
30151;SDS011;16963;26.018;-80.216;2022-08-14T08:56:02;4.32;;;2.35;;
30151;SDS011;16963;26.018;-80.216;2022-08-14T08:58:36;3.17;;;1.83;;
30151;SDS011;16963;26.018;-80.216;2022-08-14T09:01:04;4.53;;;2.20;;
30151;SDS011;16963;26.018;-80.216;2022-08-14T09:03:31;5.65;;;1.95;;
30151;SDS011;16963;26.018;-80.216;2022-08-14T09:06:11;4.07;;;2.05;;
30151;SDS011;16963;26.018;-80.216;2022-08-14T09:09:05;4.68;;;2.55;;
30151;SDS011;16963;26.018;-80.216;2022-08-14T09:13:00;3.30;;;1.90;;
30151;SDS011;16963;26.018;-80.216;2022-08-14T09:15:29;4.57;;;2.00;;
30151;SDS011;16963;26.018;-80.216;2022-08-14T09:18:08;4.57;;;2.37;;
30151;SDS011;16963;26.018;-80.216;2022-08-14T09:20:39;4.00;;;2.20;;
30151;SDS011;16963;26.018;-80.216;2022-08-14T09:23:12;4.60;;;2.53;;
30151;SDS011;16963;26.018;-80.216;2022-08-14T09:25:43;6.28;;;2.25;;
30151;SDS011;16963;26.018;-80.216;2022-08-14T09:28:27;4.07;;;2.38;;
30151;SDS011;16963;26.018;-80.216;2022-08-14T09:31:01;3.67;;;2.30;;
30151;SDS011;16963;26.018;-80.216;2022-08-14T09:33:51;4.63;;;2.15;;
30151;SDS011;16963;26.018;-80.216;2022-08-14T09:42:15;6.15;;;2.08;;
30151;SDS011;16963;26.018;-80.216;2022-08-14T09:47:52;6.90;;;2.40;;
30151;SDS011;16963;26.018;-80.216;2022-08-14T09:52:59;3.03;;;2.25;;
30151;SDS011;16963;26.018;-80.216;2022-08-14T09:55:31;3.53;;;2.20;;
30151;SDS011;16963;26.018;-80.216;2022-08-14T10:00:54;4.40;;;2.20;;
30151;SDS011;16963;26.018;-80.216;2022-08-14T10:06:06;3.65;;;2.28;;
30151;SDS011;16963;26.018;-80.216;2022-08-14T10:11:26;3.30;;;2.17;;
30151;SDS011;16963;26.018;-80.216;2022-08-14T10:14:15;4.97;;;2.47;;
30151;SDS011;16963;26.018;-80.216;2022-08-14T10:17:04;5.00;;;2.05;;
30151;SDS011;16963;26.018;-80.216;2022-08-14T10:19:45;3.10;;;1.65;;
30151;SDS011;16963;26.018;-80.216;2022-08-14T10:22:14;3.25;;;2.15;;
30151;SDS011;16963;26.018;-80.216;2022-08-14T10:25:14;6.68;;;2.28;;
30151;SDS011;16963;26.018;-80.216;2022-08-14T10:27:42;4.68;;;1.77;;
30151;SDS011;16963;26.018;-80.216;2022-08-14T10:32:52;3.50;;;2.30;;
30151;SDS011;16963;26.018;-80.216;2022-08-14T10:35:21;7.13;;;2.37;;
30151;SDS011;16963;26.018;-80.216;2022-08-14T10:38:03;4.95;;;2.60;;
30151;SDS011;16963;26.018;-80.216;2022-08-14T10:40:33;3.35;;;2.15;;
30151;SDS011;16963;26.018;-80.216;2022-08-14T10:43:23;4.93;;;2.70;;
30151;SDS011;16963;26.018;-80.216;2022-08-14T10:45:58;8.40;;;2.63;;
30151;SDS011;16963;26.018;-80.216;2022-08-14T10:49:01;5.38;;;2.38;;
30151;SDS011;16963;26.018;-80.216;2022-08-14T10:54:05;7.68;;;3.08;;
30151;SDS011;16963;26.018;-80.216;2022-08-14T10:56:54;5.18;;;2.50;;
30151;SDS011;16963;26.018;-80.216;2022-08-14T10:59:23;5.10;;;2.30;;
30151;SDS011;16963;26.018;-80.216;2022-08-14T11:02:03;3.33;;;2.07;;
30151;SDS011;16963;26.018;-80.216;2022-08-14T11:04:43;6.30;;;2.45;;
30151;SDS011;16963;26.018;-80.216;2022-08-14T11:07:14;7.30;;;2.70;;
30151;SDS011;16963;26.018;-80.216;2022-08-14T11:09:55;6.05;;;2.33;;
30151;SDS011;16963;26.018;-80.216;2022-08-14T11:12:24;5.22;;;2.30;;
30151;SDS011;16963;26.018;-80.216;2022-08-14T11:15:04;3.63;;;2.15;;
30151;SDS011;16963;26.018;-80.216;2022-08-14T11:17:42;5.53;;;2.40;;
30151;SDS011;16963;26.018;-80.216;2022-08-14T11:20:12;3.60;;;2.08;;
30151;SDS011;16963;26.018;-80.216;2022-08-14T11:22:43;5.28;;;2.17;;
30151;SDS011;16963;26.018;-80.216;2022-08-14T11:25:25;4.22;;;2.17;;
30151;SDS011;16963;26.018;-80.216;2022-08-14T11:28:12;6.10;;;2.08;;
30151;SDS011;16963;26.018;-80.216;2022-08-14T11:30:47;4.32;;;2.42;;
30151;SDS011;16963;26.018;-80.216;2022-08-14T11:33:23;4.70;;;2.20;;
30151;SDS011;16963;26.018;-80.216;2022-08-14T11:35:56;2.67;;;1.90;;
30151;SDS011;16963;26.018;-80.216;2022-08-14T11:38:34;4.85;;;2.47;;
30151;SDS011;16963;26.018;-80.216;2022-08-14T11:41:21;5.07;;;2.47;;
30151;SDS011;16963;26.018;-80.216;2022-08-14T11:43:50;4.13;;;2.10;;
30151;SDS011;16963;26.018;-80.216;2022-08-14T11:46:25;3.03;;;2.00;;
30151;SDS011;16963;26.018;-80.216;2022-08-14T11:49:03;5.05;;;2.05;;
30151;SDS011;16963;26.018;-80.216;2022-08-14T11:51:32;2.90;;;2.33;;
30151;SDS011;16963;26.018;-80.216;2022-08-14T11:54:21;3.08;;;2.03;;
30151;SDS011;16963;26.018;-80.216;2022-08-14T11:57:01;2.80;;;2.08;;
30151;SDS011;16963;26.018;-80.216;2022-08-14T12:02:12;3.00;;;2.00;;
30151;SDS011;16963;26.018;-80.216;2022-08-14T12:05:03;3.50;;;2.10;;
30151;SDS011;16963;26.018;-80.216;2022-08-14T12:07:46;4.20;;;1.83;;
30151;SDS011;16963;26.018;-80.216;2022-08-14T12:10:17;3.15;;;1.70;;
30151;SDS011;16963;26.018;-80.216;2022-08-14T12:13:13;4.65;;;1.98;;
30151;SDS011;16963;26.018;-80.216;2022-08-14T12:15:48;5.78;;;2.00;;
30151;SDS011;16963;26.018;-80.216;2022-08-14T12:18:34;4.80;;;2.08;;
30151;SDS011;16963;26.018;-80.216;2022-08-14T12:22:36;5.22;;;2.00;;
30151;SDS011;16963;26.018;-80.216;2022-08-14T12:25:19;4.03;;;1.63;;
30151;SDS011;16963;26.018;-80.216;2022-08-14T12:27:52;4.43;;;1.48;;
30151;SDS011;16963;26.018;-80.216;2022-08-14T12:30:28;3.00;;;1.80;;
30151;SDS011;16963;26.018;-80.216;2022-08-14T12:33:25;3.00;;;1.60;;
30151;SDS011;16963;26.018;-80.216;2022-08-14T12:36:00;3.75;;;2.25;;
30151;SDS011;16963;26.018;-80.216;2022-08-14T12:41:08;4.68;;;1.63;;
30151;SDS011;16963;26.018;-80.216;2022-08-14T12:43:55;2.75;;;1.67;;
30151;SDS011;16963;26.018;-80.216;2022-08-14T12:49:07;2.55;;;1.90;;
30151;SDS011;16963;26.018;-80.216;2022-08-14T12:51:53;3.15;;;1.70;;
30151;SDS011;16963;26.018;-80.216;2022-08-14T12:54:27;2.80;;;2.05;;
30151;SDS011;16963;26.018;-80.216;2022-08-14T12:57:09;3.85;;;1.90;;
30151;SDS011;16963;26.018;-80.216;2022-08-14T12:59:47;4.45;;;1.80;;
30151;SDS011;16963;26.018;-80.216;2022-08-14T13:02:22;4.40;;;1.83;;
30151;SDS011;16963;26.018;-80.216;2022-08-14T13:04:57;4.07;;;1.75;;
30151;SDS011;16963;26.018;-80.216;2022-08-14T13:07:27;3.90;;;1.80;;
30151;SDS011;16963;26.018;-80.216;2022-08-14T13:09:54;3.83;;;1.77;;
30151;SDS011;16963;26.018;-80.216;2022-08-14T13:12:35;4.70;;;1.92;;
30151;SDS011;16963;26.018;-80.216;2022-08-14T13:15:24;4.78;;;2.33;;
30151;SDS011;16963;26.018;-80.216;2022-08-14T13:17:53;3.58;;;1.77;;
30151;SDS011;16963;26.018;-80.216;2022-08-14T13:20:27;3.33;;;1.50;;
30151;SDS011;16963;26.018;-80.216;2022-08-14T13:22:59;3.75;;;1.52;;
30151;SDS011;16963;26.018;-80.216;2022-08-14T13:25:28;4.20;;;1.52;;
30151;SDS011;16963;26.018;-80.216;2022-08-14T13:28:03;4.90;;;1.70;;
30151;SDS011;16963;26.018;-80.216;2022-08-14T13:30:39;3.53;;;1.52;;
30151;SDS011;16963;26.018;-80.216;2022-08-14T13:33:24;3.78;;;1.70;;
30151;SDS011;16963;26.018;-80.216;2022-08-14T13:38:32;3.40;;;1.50;;
30151;SDS011;16963;26.018;-80.216;2022-08-14T13:41:00;2.45;;;1.50;;
30151;SDS011;16963;26.018;-80.216;2022-08-14T13:43:29;5.70;;;1.70;;
30151;SDS011;16963;26.018;-80.216;2022-08-14T13:46:02;4.45;;;1.52;;
30151;SDS011;16963;26.018;-80.216;2022-08-14T13:48:30;2.33;;;1.30;;
30151;SDS011;16963;26.018;-80.216;2022-08-14T13:51:03;4.68;;;1.73;;
30151;SDS011;16963;26.018;-80.216;2022-08-14T13:53:41;2.75;;;1.58;;
30151;SDS011;16963;26.018;-80.216;2022-08-14T13:56:34;5.00;;;1.50;;
30151;SDS011;16963;26.018;-80.216;2022-08-14T14:00:13;4.43;;;1.70;;
30151;SDS011;16963;26.018;-80.216;2022-08-14T14:02:47;2.80;;;1.40;;
30151;SDS011;16963;26.018;-80.216;2022-08-14T14:05:18;3.65;;;1.45;;
30151;SDS011;16963;26.018;-80.216;2022-08-14T14:07:51;4.32;;;1.45;;
30151;SDS011;16963;26.018;-80.216;2022-08-14T14:10:20;4.95;;;1.65;;
30151;SDS011;16963;26.018;-80.216;2022-08-14T14:12:54;3.33;;;1.38;;
30151;SDS011;16963;26.018;-80.216;2022-08-14T14:15:23;3.65;;;1.20;;
30151;SDS011;16963;26.018;-80.216;2022-08-14T14:17:59;5.65;;;1.60;;
30151;SDS011;16963;26.018;-80.216;2022-08-14T14:22:28;2.20;;;1.15;;
30151;SDS011;16963;26.018;-80.216;2022-08-14T14:25:19;4.35;;;2.10;;
30151;SDS011;16963;26.018;-80.216;2022-08-14T14:27:48;3.58;;;1.33;;
30151;SDS011;16963;26.018;-80.216;2022-08-14T14:30:19;3.83;;;1.45;;
30151;SDS011;16963;26.018;-80.216;2022-08-14T14:33:09;3.50;;;1.50;;
30151;SDS011;16963;26.018;-80.216;2022-08-14T14:36:00;3.20;;;1.42;;
30151;SDS011;16963;26.018;-80.216;2022-08-14T14:38:32;5.90;;;1.27;;
30151;SDS011;16963;26.018;-80.216;2022-08-14T14:42:13;3.25;;;1.55;;
30151;SDS011;16963;26.018;-80.216;2022-08-14T14:45:00;4.70;;;1.27;;
30151;SDS011;16963;26.018;-80.216;2022-08-14T14:47:32;4.65;;;1.52;;
30151;SDS011;16963;26.018;-80.216;2022-08-14T14:50:02;2.65;;;0.93;;
30151;SDS011;16963;26.018;-80.216;2022-08-14T14:52:32;4.05;;;1.55;;
30151;SDS011;16963;26.018;-80.216;2022-08-14T14:55:08;3.05;;;1.38;;
30151;SDS011;16963;26.018;-80.216;2022-08-14T14:57:43;4.00;;;1.40;;
30151;SDS011;16963;26.018;-80.216;2022-08-14T15:00:21;2.60;;;1.30;;
30151;SDS011;16963;26.018;-80.216;2022-08-14T15:03:02;3.28;;;1.30;;
30151;SDS011;16963;26.018;-80.216;2022-08-14T15:05:31;2.22;;;1.30;;
30151;SDS011;16963;26.018;-80.216;2022-08-14T15:08:02;3.65;;;1.38;;
30151;SDS011;16963;26.018;-80.216;2022-08-14T15:10:35;3.40;;;1.10;;
30151;SDS011;16963;26.018;-80.216;2022-08-14T15:13:07;3.75;;;1.17;;
30151;SDS011;16963;26.018;-80.216;2022-08-14T15:15:38;2.83;;;1.33;;
30151;SDS011;16963;26.018;-80.216;2022-08-14T15:18:09;3.92;;;1.20;;
30151;SDS011;16963;26.018;-80.216;2022-08-14T15:20:59;2.72;;;1.33;;
30151;SDS011;16963;26.018;-80.216;2022-08-14T15:23:42;2.63;;;1.10;;
30151;SDS011;16963;26.018;-80.216;2022-08-14T15:28:51;2.75;;;1.20;;
30151;SDS011;16963;26.018;-80.216;2022-08-14T15:31:28;3.05;;;1.40;;
30151;SDS011;16963;26.018;-80.216;2022-08-14T15:34:03;1.98;;;1.17;;
30151;SDS011;16963;26.018;-80.216;2022-08-14T15:36:59;2.30;;;1.15;;
30151;SDS011;16963;26.018;-80.216;2022-08-14T15:39:30;1.75;;;1.20;;
30151;SDS011;16963;26.018;-80.216;2022-08-14T15:44:25;4.60;;;1.33;;
30151;SDS011;16963;26.018;-80.216;2022-08-14T15:47:00;5.05;;;1.50;;
30151;SDS011;16963;26.018;-80.216;2022-08-14T15:49:33;3.92;;;1.20;;
30151;SDS011;16963;26.018;-80.216;2022-08-14T15:52:03;3.38;;;1.10;;
30151;SDS011;16963;26.018;-80.216;2022-08-14T15:54:33;2.15;;;1.05;;
30151;SDS011;16963;26.018;-80.216;2022-08-14T15:57:02;2.97;;;1.15;;
30151;SDS011;16963;26.018;-80.216;2022-08-14T15:59:34;3.55;;;1.42;;
30151;SDS011;16963;26.018;-80.216;2022-08-14T16:02:24;1.63;;;1.10;;
30151;SDS011;16963;26.018;-80.216;2022-08-14T16:05:03;2.72;;;1.17;;
30151;SDS011;16963;26.018;-80.216;2022-08-14T16:07:35;1.23;;;1.00;;
30151;SDS011;16963;26.018;-80.216;2022-08-14T16:10:03;3.17;;;1.60;;
30151;SDS011;16963;26.018;-80.216;2022-08-14T16:12:52;4.20;;;1.20;;
30151;SDS011;16963;26.018;-80.216;2022-08-14T16:17:49;3.33;;;1.40;;
30151;SDS011;16963;26.018;-80.216;2022-08-14T16:20:19;4.40;;;1.60;;
30151;SDS011;16963;26.018;-80.216;2022-08-14T16:23:10;2.72;;;1.27;;
30151;SDS011;16963;26.018;-80.216;2022-08-14T16:25:58;3.22;;;1.40;;
30151;SDS011;16963;26.018;-80.216;2022-08-14T16:28:35;3.55;;;1.50;;
30151;SDS011;16963;26.018;-80.216;2022-08-14T16:31:11;5.82;;;1.70;;
30151;SDS011;16963;26.018;-80.216;2022-08-14T16:36:27;3.55;;;1.80;;
30151;SDS011;16963;26.018;-80.216;2022-08-14T16:39:04;3.83;;;1.63;;
30151;SDS011;16963;26.018;-80.216;2022-08-14T16:41:32;4.70;;;1.63;;
30151;SDS011;16963;26.018;-80.216;2022-08-14T16:46:37;5.15;;;1.80;;
30151;SDS011;16963;26.018;-80.216;2022-08-14T16:49:11;4.35;;;1.40;;
30151;SDS011;16963;26.018;-80.216;2022-08-14T16:51:43;2.83;;;1.65;;
30151;SDS011;16963;26.018;-80.216;2022-08-14T16:54:17;4.53;;;1.50;;